createdAt,value
2023-03-06T00:00:48.161Z,10.50
2023-03-06T00:03:14.669Z,11.10
2023-03-06T00:05:41.249Z,11.33
2023-03-06T00:08:08.588Z,10.33
2023-03-06T00:10:35.118Z,12.57
2023-03-06T00:13:06.270Z,12.63
2023-03-06T00:15:33.719Z,12.53
2023-03-06T00:18:04.323Z,9.50
2023-03-06T00:20:31.137Z,11.90
2023-03-06T00:22:57.875Z,13.80
2023-03-06T00:25:24.723Z,17.07
2023-03-06T00:27:51.488Z,12.77
2023-03-06T00:30:21.507Z,15.93
2023-03-06T00:32:48.389Z,12.90
2023-03-06T00:35:15.710Z,11.30
2023-03-06T00:37:42.334Z,14.60
2023-03-06T00:40:11.667Z,12.53
2023-03-06T00:42:38.021Z,14.87
2023-03-06T00:45:05.453Z,12.43
2023-03-06T00:47:31.978Z,12.97
2023-03-06T00:49:58.387Z,9.83
2023-03-06T00:52:25.027Z,9.57
2023-03-06T00:54:51.535Z,9.97
2023-03-06T00:57:17.976Z,10.00
2023-03-06T00:59:44.360Z,10.47
2023-03-06T01:02:10.774Z,7.33
2023-03-06T01:04:37.159Z,9.27
2023-03-06T01:07:03.571Z,10.93
2023-03-06T01:09:29.945Z,11.73
2023-03-06T01:11:56.343Z,12.73
2023-03-06T01:14:23.209Z,8.83
2023-03-06T01:16:49.950Z,9.17
2023-03-06T01:19:17.096Z,9.37
2023-03-06T01:21:43.486Z,9.57
2023-03-06T01:24:09.844Z,10.47
2023-03-06T01:26:36.257Z,9.43
2023-03-06T01:29:03.000Z,9.90
2023-03-06T01:31:29.510Z,10.07
2023-03-06T01:33:55.962Z,8.70
2023-03-06T01:36:22.343Z,9.10
2023-03-06T01:38:48.697Z,10.57
2023-03-06T01:41:16.054Z,12.40
2023-03-06T01:43:45.039Z,11.17
2023-03-06T01:46:33.236Z,13.20
2023-03-06T01:49:18.292Z,13.10
2023-03-06T01:52:06.509Z,12.43
2023-03-06T01:54:41.832Z,13.17
2023-03-06T01:57:13.814Z,12.50
2023-03-06T01:59:42.215Z,15.50
2023-03-06T02:02:11.945Z,14.30
2023-03-06T02:04:41.160Z,18.03
2023-03-06T02:07:08.253Z,12.07
2023-03-06T02:09:35.700Z,14.73
2023-03-06T02:12:06.031Z,14.07
2023-03-06T02:14:32.458Z,12.50
2023-03-06T02:16:58.938Z,14.70
2023-03-06T02:19:48.258Z,15.43
2023-03-06T02:22:14.627Z,12.90
2023-03-06T02:24:54.995Z,13.03
2023-03-06T02:27:23.327Z,13.83
2023-03-06T02:29:49.702Z,13.70
2023-03-06T02:32:16.219Z,13.17
2023-03-06T02:34:46.470Z,14.37
2023-03-06T02:37:12.840Z,14.50
2023-03-06T02:39:44.055Z,15.30
2023-03-06T02:42:10.469Z,14.13
2023-03-06T02:44:37.286Z,12.10
2023-03-06T02:47:03.812Z,12.77
2023-03-06T02:49:30.186Z,12.57
2023-03-06T02:51:56.582Z,11.63
2023-03-06T02:54:22.938Z,14.23
2023-03-06T02:56:49.302Z,12.30
2023-03-06T02:59:15.674Z,10.97
2023-03-06T03:01:42.072Z,13.07
2023-03-06T03:04:08.708Z,11.53
2023-03-06T03:06:35.107Z,10.53
2023-03-06T03:09:01.530Z,11.77
2023-03-06T03:11:27.876Z,9.17
2023-03-06T03:13:54.291Z,12.43
2023-03-06T03:16:20.722Z,13.30
2023-03-06T03:18:51.125Z,13.10
2023-03-06T03:21:17.775Z,9.23
2023-03-06T03:23:44.129Z,10.63
2023-03-06T03:26:13.545Z,11.37
2023-03-06T03:28:40.024Z,8.03
2023-03-06T03:31:08.984Z,9.87
2023-03-06T03:33:35.451Z,8.67
2023-03-06T03:36:04.452Z,9.77
2023-03-06T03:38:31.144Z,9.23
2023-03-06T03:40:57.493Z,8.70
2023-03-06T03:43:24.089Z,10.50
2023-03-06T03:45:53.083Z,8.27
2023-03-06T03:48:19.814Z,8.63
2023-03-06T03:50:46.172Z,11.23
2023-03-06T03:53:12.629Z,14.27
2023-03-06T03:55:39.346Z,12.27
2023-03-06T03:58:05.735Z,11.50
2023-03-06T04:00:32.224Z,7.70
2023-03-06T04:02:58.587Z,10.67
2023-03-06T04:05:24.938Z,8.70
2023-03-06T04:07:51.318Z,12.10
2023-03-06T04:10:17.790Z,9.00
2023-03-06T04:12:44.179Z,6.37
2023-03-06T04:15:10.841Z,8.50
2023-03-06T04:17:38.023Z,8.03
2023-03-06T04:20:05.016Z,5.43
2023-03-06T04:22:31.392Z,6.23
2023-03-06T04:24:57.750Z,4.30
2023-03-06T04:27:24.257Z,5.00
2023-03-06T04:29:50.606Z,4.43
2023-03-06T04:32:17.172Z,4.23
2023-03-06T04:34:43.906Z,5.27
2023-03-06T04:37:20.259Z,6.07
2023-03-06T04:39:47.008Z,4.13
2023-03-06T04:42:13.376Z,4.63
2023-03-06T04:44:39.775Z,5.43
2023-03-06T04:47:06.446Z,4.97
2023-03-06T04:49:32.952Z,3.83
2023-03-06T04:51:59.310Z,4.97
2023-03-06T04:54:25.847Z,3.77
2023-03-06T04:56:52.205Z,4.07
2023-03-06T04:59:18.610Z,4.23
2023-03-06T05:01:44.974Z,6.20
2023-03-06T05:04:11.334Z,5.10
2023-03-06T05:06:37.880Z,3.93
2023-03-06T05:09:04.570Z,4.73
2023-03-06T05:11:30.969Z,4.77
2023-03-06T05:13:57.403Z,3.90
2023-03-06T05:16:23.812Z,4.07
2023-03-06T05:18:50.737Z,3.77
2023-03-06T05:21:17.211Z,4.83
2023-03-06T05:23:43.678Z,3.90
2023-03-06T05:26:12.898Z,3.23
2023-03-06T05:28:39.467Z,3.33
2023-03-06T05:31:06.637Z,4.23
2023-03-06T05:33:34.635Z,3.80
2023-03-06T05:36:01.893Z,3.40
2023-03-06T05:38:28.927Z,3.90
2023-03-06T05:40:55.274Z,3.77
2023-03-06T05:43:21.665Z,3.93
2023-03-06T05:45:50.185Z,3.57
2023-03-06T05:48:16.547Z,3.87
2023-03-06T05:50:42.928Z,3.33
2023-03-06T05:53:09.520Z,4.30
2023-03-06T05:55:35.877Z,4.27
2023-03-06T05:58:02.242Z,3.57
2023-03-06T06:00:28.665Z,3.40
2023-03-06T06:02:55.040Z,3.20
2023-03-06T06:05:21.400Z,3.60
2023-03-06T06:07:47.777Z,3.90
2023-03-06T06:10:14.268Z,3.43
2023-03-06T06:12:40.686Z,5.37
2023-03-06T06:15:07.524Z,4.23
2023-03-06T06:17:33.885Z,3.87
2023-03-06T06:20:00.359Z,4.03
2023-03-06T06:22:26.715Z,3.53
2023-03-06T06:24:53.061Z,3.67
2023-03-06T06:27:19.434Z,3.53
2023-03-06T06:29:45.798Z,4.20
2023-03-06T06:32:12.250Z,6.73
2023-03-06T06:34:38.627Z,5.17
2023-03-06T06:37:05.339Z,6.47
2023-03-06T06:39:31.811Z,5.00
2023-03-06T06:42:20.244Z,7.97
2023-03-06T06:44:44.632Z,8.03
2023-03-06T06:47:26.504Z,5.93
2023-03-06T06:49:54.732Z,3.90
2023-03-06T06:52:21.830Z,5.43
2023-03-06T06:54:48.208Z,6.33
2023-03-06T06:57:14.760Z,5.70
2023-03-06T06:59:41.198Z,5.57
2023-03-06T07:02:07.756Z,5.80
2023-03-06T07:04:34.109Z,4.90
2023-03-06T07:07:01.154Z,5.87
2023-03-06T07:09:27.772Z,5.83
2023-03-06T07:11:54.137Z,5.17
2023-03-06T07:14:20.544Z,4.63
2023-03-06T07:16:46.938Z,4.47
2023-03-06T07:19:13.336Z,4.57
2023-03-06T07:21:40.025Z,4.50
2023-03-06T07:24:06.803Z,3.90
2023-03-06T07:26:34.790Z,4.60
2023-03-06T07:29:01.841Z,3.83
2023-03-06T07:31:28.542Z,4.57
2023-03-06T07:33:54.968Z,3.30
2023-03-06T07:36:23.034Z,5.57
2023-03-06T07:38:49.464Z,3.97
2023-03-06T07:41:16.512Z,3.97
2023-03-06T07:43:44.608Z,6.07
2023-03-06T07:46:12.779Z,5.30
2023-03-06T07:48:39.650Z,3.60
2023-03-06T07:51:09.106Z,4.53
2023-03-06T07:53:35.660Z,4.80
2023-03-06T07:56:08.535Z,5.13
2023-03-06T07:58:39.626Z,4.37
2023-03-06T08:01:08.375Z,5.13
2023-03-06T08:03:35.073Z,6.57
2023-03-06T08:06:11.573Z,3.70
2023-03-06T08:08:39.716Z,4.70
2023-03-06T08:11:07.461Z,5.90
2023-03-06T08:13:34.630Z,5.20
2023-03-06T08:16:01.378Z,4.10
2023-03-06T08:18:28.545Z,6.90
2023-03-06T08:21:23.520Z,4.47
2023-03-06T08:23:50.466Z,4.00
2023-03-06T08:26:23.447Z,5.60
2023-03-06T08:28:51.415Z,4.40
2023-03-06T08:31:27.436Z,5.43
2023-03-06T08:33:55.860Z,4.83
2023-03-06T08:36:22.388Z,7.77
2023-03-06T08:38:48.767Z,7.97
2023-03-06T08:41:15.720Z,6.57
2023-03-06T08:43:42.163Z,5.60
2023-03-06T08:46:10.042Z,3.97
2023-03-06T08:48:36.518Z,6.07
2023-03-06T08:51:02.967Z,4.43
2023-03-06T08:53:42.098Z,5.50
2023-03-06T08:56:30.409Z,5.70
2023-03-06T08:58:58.765Z,5.13
2023-03-06T09:01:27.920Z,5.47
2023-03-06T09:03:56.471Z,4.07
2023-03-06T09:06:24.240Z,7.07
2023-03-06T09:08:51.668Z,3.80
2023-03-06T09:11:18.482Z,5.17
2023-03-06T09:13:44.861Z,5.70
2023-03-06T09:16:11.977Z,4.30
2023-03-06T09:18:38.861Z,5.33
2023-03-06T09:21:06.621Z,6.40
2023-03-06T09:23:33.786Z,6.47
2023-03-06T09:26:00.856Z,4.20
2023-03-06T09:28:27.582Z,7.43
2023-03-06T09:30:54.422Z,7.30
2023-03-06T09:33:21.360Z,7.40
2023-03-06T09:35:56.433Z,8.83
2023-03-06T09:38:25.595Z,7.53
2023-03-06T09:41:02.621Z,4.43
2023-03-06T09:43:35.382Z,5.10
2023-03-06T09:46:13.407Z,4.60
2023-03-06T09:48:53.662Z,7.87
2023-03-06T09:51:26.035Z,5.00
2023-03-06T09:54:13.651Z,7.87
2023-03-06T09:56:46.984Z,6.40
2023-03-06T09:59:20.077Z,4.57
2023-03-06T10:01:58.648Z,7.87
2023-03-06T10:04:43.228Z,6.93
2023-03-06T10:07:22.390Z,4.73
2023-03-06T10:09:56.639Z,5.53
2023-03-06T10:12:29.127Z,5.43
2023-03-06T10:15:05.390Z,7.67
2023-03-06T10:17:37.697Z,4.97
2023-03-06T10:20:23.146Z,3.67
2023-03-06T10:23:01.022Z,5.67
2023-03-06T10:25:46.333Z,6.03
2023-03-06T10:28:17.394Z,6.40
2023-03-06T10:31:23.577Z,5.37
2023-03-06T10:33:58.630Z,4.23
2023-03-06T10:36:27.232Z,4.23
2023-03-06T10:38:55.599Z,5.40
2023-03-06T10:41:25.801Z,3.43
2023-03-06T10:44:01.233Z,5.47
2023-03-06T10:46:32.988Z,4.00
2023-03-06T10:49:02.372Z,6.37
2023-03-06T10:51:30.334Z,6.00
2023-03-06T10:53:59.462Z,5.37
2023-03-06T10:56:43.654Z,4.03
2023-03-06T10:59:13.948Z,5.67
2023-03-06T11:01:42.310Z,9.37
2023-03-06T11:04:21.146Z,5.30
2023-03-06T11:06:48.253Z,8.57
2023-03-06T11:09:26.807Z,4.47
2023-03-06T11:12:26.266Z,7.17
2023-03-06T11:15:14.432Z,6.83
2023-03-06T11:17:49.776Z,6.10
2023-03-06T11:20:31.779Z,4.50
2023-03-06T11:23:20.750Z,6.47
2023-03-06T11:25:48.981Z,6.40
2023-03-06T11:28:34.928Z,5.87
2023-03-06T11:31:10.391Z,3.87
2023-03-06T11:33:49.748Z,6.53
2023-03-06T11:36:25.382Z,8.33
2023-03-06T11:38:53.828Z,7.23
2023-03-06T11:41:33.667Z,5.13
2023-03-06T11:44:21.021Z,7.83
2023-03-06T11:46:52.568Z,5.30
2023-03-06T11:49:27.454Z,6.57
2023-03-06T11:52:03.294Z,4.30
2023-03-06T11:54:29.954Z,4.33
2023-03-06T11:57:01.580Z,6.57
2023-03-06T11:59:46.195Z,3.73
2023-03-06T12:02:37.690Z,4.60
2023-03-06T12:05:12.127Z,5.47
2023-03-06T12:07:54.827Z,7.03
2023-03-06T12:10:30.976Z,6.93
2023-03-06T12:13:35.754Z,4.43
2023-03-06T12:16:17.494Z,4.40
2023-03-06T12:18:56.030Z,5.50
2023-03-06T12:21:38.458Z,5.67
2023-03-06T12:24:16.888Z,5.53
2023-03-06T12:26:57.090Z,8.67
2023-03-06T12:29:45.230Z,6.00
2023-03-06T12:32:24.891Z,12.70
2023-03-06T12:35:19.876Z,5.90
2023-03-06T12:37:52.456Z,6.67
2023-03-06T12:40:36.108Z,4.30
2023-03-06T12:43:43.375Z,5.07
2023-03-06T12:46:15.986Z,4.40
2023-03-06T12:48:48.463Z,4.03
2023-03-06T12:51:20.386Z,7.33
2023-03-06T12:53:47.809Z,5.13
2023-03-06T12:56:16.000Z,5.20
2023-03-06T12:58:56.949Z,6.57
2023-03-06T13:01:58.006Z,4.00
2023-03-06T13:04:34.435Z,5.70
2023-03-06T13:07:27.732Z,3.57
2023-03-06T13:10:20.245Z,3.73
2023-03-06T13:12:56.904Z,4.47
2023-03-06T13:15:35.221Z,3.27
2023-03-06T13:18:23.899Z,2.57
2023-03-06T13:20:52.428Z,4.37
2023-03-06T13:23:33.832Z,3.97
2023-03-06T13:26:07.914Z,2.60
2023-03-06T13:28:50.244Z,4.67
2023-03-06T13:31:27.909Z,10.90
2023-03-06T13:33:58.579Z,16.47
2023-03-06T13:36:39.077Z,5.33
2023-03-06T13:39:10.591Z,3.77
2023-03-06T13:41:58.721Z,4.53
2023-03-06T13:44:25.101Z,2.40
2023-03-06T13:47:00.589Z,4.87
2023-03-06T13:49:28.406Z,3.97
2023-03-06T13:51:54.758Z,7.40
2023-03-06T13:54:54.621Z,7.23
2023-03-06T13:57:40.547Z,6.60
2023-03-06T14:00:28.372Z,5.73
2023-03-06T14:03:36.884Z,2.90
2023-03-06T14:06:35.066Z,6.33
2023-03-06T14:09:30.170Z,4.47
2023-03-06T14:12:08.129Z,2.77
2023-03-06T14:14:41.670Z,4.97
2023-03-06T14:17:23.183Z,3.93
2023-03-06T14:19:49.998Z,6.80
2023-03-06T14:22:22.068Z,4.83
2023-03-06T14:24:59.723Z,4.47
2023-03-06T14:27:49.178Z,4.97
2023-03-06T14:30:18.654Z,9.43
2023-03-06T14:32:45.240Z,3.93
2023-03-06T14:35:32.054Z,4.17
2023-03-06T14:38:04.574Z,4.43
2023-03-06T14:40:35.804Z,2.50
2023-03-06T14:43:22.957Z,4.70
2023-03-06T14:46:00.812Z,4.37
2023-03-06T14:48:47.911Z,4.10
2023-03-06T14:51:21.198Z,6.43
2023-03-06T14:53:52.210Z,1.70
2023-03-06T14:56:24.255Z,4.73
2023-03-06T14:59:03.467Z,5.47
2023-03-06T15:01:44.537Z,3.53
2023-03-06T15:04:30.968Z,5.53
2023-03-06T15:06:58.700Z,6.43
2023-03-06T15:09:31.330Z,4.73
2023-03-06T15:12:03.581Z,3.43
2023-03-06T15:14:41.913Z,3.30
2023-03-06T15:17:20.425Z,4.50
2023-03-06T15:19:49.567Z,2.47
2023-03-06T15:22:40.640Z,4.27
2023-03-06T15:25:15.818Z,3.90
2023-03-06T15:27:51.062Z,3.60
2023-03-06T15:30:29.512Z,4.80
2023-03-06T15:33:09.160Z,3.57
2023-03-06T15:35:37.960Z,4.17
2023-03-06T15:38:23.799Z,2.70
2023-03-06T15:40:58.315Z,4.20
2023-03-06T15:43:25.039Z,2.97
2023-03-06T15:45:58.492Z,8.67
2023-03-06T15:48:25.201Z,4.53
2023-03-06T15:50:51.699Z,3.13
2023-03-06T15:53:19.543Z,2.47
2023-03-06T15:55:46.657Z,3.63
2023-03-06T15:58:18.003Z,6.57
2023-03-06T16:00:44.538Z,5.17
2023-03-06T16:03:11.710Z,5.60
2023-03-06T16:05:38.648Z,3.33
2023-03-06T16:08:06.064Z,4.83
2023-03-06T16:10:35.876Z,5.33
2023-03-06T16:13:13.592Z,3.83
2023-03-06T16:15:44.922Z,5.70
2023-03-06T16:18:13.051Z,4.60
2023-03-06T16:20:40.190Z,3.83
2023-03-06T16:23:10.203Z,5.97
2023-03-06T16:25:40.057Z,9.17
2023-03-06T16:28:11.885Z,4.50
2023-03-06T16:30:38.535Z,4.53
2023-03-06T16:33:05.347Z,7.47
2023-03-06T16:35:31.918Z,3.70
2023-03-06T16:37:59.890Z,5.17
2023-03-06T16:40:41.145Z,7.00
2023-03-06T16:43:08.728Z,8.53
2023-03-06T16:45:41.193Z,6.43
2023-03-06T16:48:13.600Z,5.30
2023-03-06T16:50:40.403Z,5.07
2023-03-06T16:53:07.560Z,7.13
2023-03-06T16:55:33.973Z,8.67
2023-03-06T16:58:00.330Z,4.60
2023-03-06T17:00:31.173Z,12.57
2023-03-06T17:02:57.707Z,7.70
2023-03-06T17:05:24.098Z,5.00
2023-03-06T17:07:50.534Z,8.40
2023-03-06T17:10:18.809Z,5.07
2023-03-06T17:12:45.277Z,4.70
2023-03-06T17:15:12.085Z,7.20
2023-03-06T17:17:38.579Z,8.57
2023-03-06T17:20:07.550Z,6.23
2023-03-06T17:22:35.456Z,7.53
2023-03-06T17:25:03.391Z,6.50
2023-03-06T17:27:30.074Z,8.27
2023-03-06T17:29:57.792Z,7.07
2023-03-06T17:32:24.274Z,6.67
2023-03-06T17:34:50.741Z,4.93
2023-03-06T17:37:17.224Z,5.67
2023-03-06T17:39:43.863Z,5.83
2023-03-06T17:42:10.430Z,10.97
2023-03-06T17:44:38.115Z,6.83
2023-03-06T17:47:05.219Z,6.97
2023-03-06T17:49:31.770Z,7.93
2023-03-06T17:52:04.508Z,6.23
2023-03-06T17:54:33.009Z,6.53
2023-03-06T17:57:05.214Z,8.33
2023-03-06T17:59:34.160Z,5.93
2023-03-06T18:02:01.393Z,12.27
2023-03-06T18:04:27.865Z,9.60
2023-03-06T18:06:54.410Z,9.73
2023-03-06T18:09:20.855Z,11.00
2023-03-06T18:11:47.299Z,9.33
2023-03-06T18:14:14.012Z,9.07
2023-03-06T18:16:40.447Z,12.23
2023-03-06T18:19:06.897Z,7.50
2023-03-06T18:21:33.290Z,9.63
2023-03-06T18:23:59.657Z,9.03
2023-03-06T18:26:28.719Z,12.53
2023-03-06T18:29:01.366Z,18.37
2023-03-06T18:31:33.740Z,9.60
2023-03-06T18:34:06.613Z,11.60
2023-03-06T18:36:34.586Z,13.50
2023-03-06T18:39:03.580Z,12.37
2023-03-06T18:41:30.922Z,14.07
2023-03-06T18:44:00.049Z,13.53
2023-03-06T18:46:30.562Z,16.23
2023-03-06T18:48:57.000Z,14.00
2023-03-06T18:51:23.397Z,14.40
2023-03-06T18:53:49.755Z,16.23
2023-03-06T18:56:21.642Z,16.37
2023-03-06T18:58:48.783Z,17.13
2023-03-06T19:01:15.252Z,16.47
2023-03-06T19:03:41.881Z,15.97
2023-03-06T19:06:11.391Z,17.90
2023-03-06T19:08:38.939Z,16.97
2023-03-06T19:11:08.151Z,18.30
2023-03-06T19:13:34.527Z,21.37
2023-03-06T19:16:01.336Z,37.53
2023-03-06T19:18:29.229Z,21.77
2023-03-06T19:20:56.559Z,18.63
2023-03-06T19:23:23.163Z,19.57
2023-03-06T19:25:59.567Z,18.73
2023-03-06T19:28:26.627Z,20.80
2023-03-06T19:30:53.437Z,27.50
2023-03-06T19:33:19.809Z,33.97
2023-03-06T19:35:46.479Z,38.87
2023-03-06T19:38:13.934Z,47.23
2023-03-06T19:40:40.307Z,71.67
2023-03-06T19:43:06.708Z,45.67
2023-03-06T19:45:33.113Z,28.43
2023-03-06T19:48:00.893Z,23.10
2023-03-06T19:50:30.637Z,16.93
2023-03-06T19:52:57.497Z,19.37
2023-03-06T19:55:26.227Z,20.37
2023-03-06T19:57:53.117Z,22.07
2023-03-06T20:00:20.532Z,16.10
2023-03-06T20:02:47.075Z,21.90
2023-03-06T20:05:13.432Z,19.57
2023-03-06T20:07:39.851Z,20.87
2023-03-06T20:10:06.393Z,23.13
2023-03-06T20:12:33.262Z,18.20
2023-03-06T20:15:00.168Z,16.93
2023-03-06T20:17:26.611Z,14.27
2023-03-06T20:19:53.413Z,15.90
2023-03-06T20:22:19.785Z,13.90
2023-03-06T20:24:46.417Z,18.50
2023-03-06T20:27:13.016Z,60.80
2023-03-06T20:29:43.267Z,43.77
2023-03-06T20:32:09.719Z,28.37
2023-03-06T20:34:38.689Z,13.43
2023-03-06T20:37:06.254Z,13.93
2023-03-06T20:39:32.957Z,16.57
2023-03-06T20:42:00.042Z,13.07
2023-03-06T20:44:27.378Z,15.37
2023-03-06T20:46:55.225Z,14.63
2023-03-06T20:49:22.011Z,15.97
2023-03-06T20:51:49.872Z,17.40
2023-03-06T20:54:17.254Z,18.60
2023-03-06T20:56:46.756Z,12.40
2023-03-06T20:59:14.134Z,15.43
2023-03-06T21:01:43.481Z,16.20
2023-03-06T21:04:13.773Z,16.57
2023-03-06T21:06:43.524Z,13.60
2023-03-06T21:09:11.232Z,11.67
2023-03-06T21:11:37.620Z,16.10
2023-03-06T21:14:04.094Z,13.83
2023-03-06T21:16:30.908Z,13.30
2023-03-06T21:18:59.377Z,12.10
2023-03-06T21:21:30.343Z,15.47
2023-03-06T21:23:57.491Z,11.50
2023-03-06T21:26:26.458Z,13.27
2023-03-06T21:28:52.880Z,11.10
2023-03-06T21:31:20.986Z,11.93
2023-03-06T21:33:48.889Z,10.80
2023-03-06T21:36:15.946Z,10.67
2023-03-06T21:38:42.326Z,11.60
2023-03-06T21:41:10.971Z,12.00
2023-03-06T21:43:37.367Z,13.67
2023-03-06T21:46:03.938Z,11.33
2023-03-06T21:48:30.419Z,13.23
2023-03-06T21:51:10.412Z,10.30
2023-03-06T21:53:36.936Z,10.50
2023-03-06T21:56:04.678Z,10.53
2023-03-06T21:58:31.657Z,10.47
2023-03-06T22:00:58.329Z,10.43
2023-03-06T22:03:24.755Z,12.53
2023-03-06T22:05:52.057Z,12.40
2023-03-06T22:08:21.302Z,9.90
2023-03-06T22:10:48.915Z,10.73
2023-03-06T22:13:15.754Z,10.43
2023-03-06T22:15:52.966Z,8.30
2023-03-06T22:18:19.375Z,9.80
2023-03-06T22:20:45.810Z,10.30
2023-03-06T22:23:12.262Z,9.60
2023-03-06T22:25:38.699Z,10.23
2023-03-06T22:28:05.122Z,11.17
2023-03-06T22:30:31.637Z,11.13
2023-03-06T22:32:58.403Z,12.30
2023-03-06T22:35:25.035Z,10.90
2023-03-06T22:37:51.437Z,11.97
2023-03-06T22:40:17.912Z,11.23
2023-03-06T22:42:44.308Z,10.60
2023-03-06T22:45:11.186Z,9.00
2023-03-06T22:47:37.994Z,10.23
2023-03-06T22:50:06.049Z,8.83
2023-03-06T22:52:33.119Z,9.93
2023-03-06T22:54:59.499Z,8.67
2023-03-06T22:57:25.909Z,9.00
2023-03-06T22:59:52.276Z,9.10
2023-03-06T23:02:18.644Z,11.70
2023-03-06T23:04:52.054Z,8.50
2023-03-06T23:07:19.745Z,9.17
2023-03-06T23:09:46.322Z,9.47
2023-03-06T23:12:12.688Z,9.67
2023-03-06T23:14:39.267Z,10.50
2023-03-06T23:17:05.672Z,9.27
2023-03-06T23:19:32.177Z,12.77
2023-03-06T23:21:58.548Z,14.93
2023-03-06T23:24:25.201Z,13.17
2023-03-06T23:26:51.721Z,14.17
2023-03-06T23:29:18.103Z,17.00
2023-03-06T23:31:44.468Z,14.93
2023-03-06T23:34:11.522Z,17.37
2023-03-06T23:36:37.896Z,18.20
2023-03-06T23:39:04.326Z,17.97
2023-03-06T23:41:30.690Z,18.50
2023-03-06T23:43:58.349Z,22.97
2023-03-06T23:46:24.973Z,22.47
2023-03-06T23:48:52.225Z,24.20
2023-03-06T23:51:20.669Z,20.97
2023-03-06T23:53:52.506Z,22.43
2023-03-06T23:56:18.896Z,20.80
2023-03-06T23:58:46.384Z,23.07
